createdAt,value
2017-07-08T00:01:34.274Z,9.13
2017-07-08T00:04:00.317Z,11.97
2017-07-08T00:06:26.358Z,11.80
2017-07-08T00:08:52.407Z,10.43
2017-07-08T00:11:18.463Z,11.07
2017-07-08T00:13:44.544Z,11.17
2017-07-08T00:16:10.605Z,14.27
2017-07-08T00:18:36.653Z,11.30
2017-07-08T00:21:02.702Z,13.47
2017-07-08T00:23:28.771Z,11.67
2017-07-08T00:25:54.827Z,10.25
2017-07-08T00:28:20.899Z,10.70
2017-07-08T00:30:46.947Z,9.37
2017-07-08T00:33:13.009Z,11.50
2017-07-08T00:35:39.072Z,10.85
2017-07-08T00:38:05.163Z,11.13
2017-07-08T00:40:31.227Z,9.13
2017-07-08T00:42:58.015Z,11.55
2017-07-08T00:45:24.083Z,9.03
2017-07-08T00:47:50.136Z,10.73
2017-07-08T00:50:16.212Z,8.85
2017-07-08T00:52:42.282Z,11.30
2017-07-08T00:55:08.357Z,8.43
2017-07-08T00:57:34.391Z,12.87
2017-07-08T01:00:00.443Z,9.70
2017-07-08T01:02:26.507Z,10.20
2017-07-08T01:04:52.567Z,13.30
2017-07-08T01:07:18.629Z,14.57
2017-07-08T01:09:44.695Z,14.40
2017-07-08T01:12:10.802Z,14.45
2017-07-08T01:14:36.855Z,14.68
2017-07-08T01:38:48.539Z,10.20
2017-07-08T01:41:14.660Z,16.45
2017-07-08T01:43:40.762Z,15.80
2017-07-08T01:46:06.827Z,15.85
2017-07-08T01:48:32.907Z,16.65
2017-07-08T01:50:58.984Z,15.80
2017-07-08T01:53:25.798Z,16.58
2017-07-08T01:55:51.871Z,10.98
2017-07-08T01:58:17.956Z,10.55
2017-07-08T02:00:44.020Z,16.00
2017-07-08T02:03:10.107Z,9.98
2017-07-08T02:05:36.185Z,14.93
2017-07-08T02:08:02.261Z,12.02
2017-07-08T02:10:28.318Z,15.35
2017-07-08T02:12:54.373Z,10.18
2017-07-08T02:15:20.451Z,15.70
2017-07-08T02:17:46.522Z,16.05
2017-07-08T02:20:12.578Z,13.68
2017-07-08T02:22:38.635Z,11.12
2017-07-08T02:25:04.715Z,10.45
2017-07-08T02:27:30.782Z,15.65
2017-07-08T02:29:56.831Z,10.05
2017-07-08T02:32:22.879Z,9.63
2017-07-08T02:34:48.934Z,16.60
2017-07-08T02:37:15.003Z,18.77
2017-07-08T02:39:41.063Z,10.65
2017-07-08T02:42:07.122Z,18.10
2017-07-08T02:44:33.186Z,17.90
2017-07-08T02:46:59.259Z,15.90
2017-07-08T02:49:25.342Z,18.37
2017-07-08T02:51:51.413Z,19.05
2017-07-08T02:54:17.471Z,10.52
2017-07-08T02:56:43.530Z,17.37
2017-07-08T02:59:09.595Z,14.07
2017-07-08T03:01:35.662Z,17.23
2017-07-08T03:04:01.723Z,20.15
2017-07-08T03:06:27.774Z,11.68
2017-07-08T03:08:53.831Z,16.52
2017-07-08T03:11:19.896Z,22.33
2017-07-08T03:13:45.951Z,11.80
2017-07-08T03:16:12.008Z,19.48
2017-07-08T03:18:38.068Z,20.58
2017-07-08T03:21:04.887Z,11.95
2017-07-08T03:23:30.972Z,18.70
2017-07-08T03:25:57.035Z,19.62
2017-07-08T03:28:23.109Z,19.73
2017-07-08T03:30:49.182Z,12.35
2017-07-08T03:33:15.265Z,18.12
2017-07-08T03:35:56.326Z,16.98
2017-07-08T03:38:22.403Z,19.55
2017-07-08T03:40:48.481Z,20.77
2017-07-08T03:43:14.550Z,12.48
2017-07-08T03:45:40.622Z,20.55
2017-07-08T03:48:06.711Z,14.73
2017-07-08T03:50:32.789Z,20.02
2017-07-08T03:52:58.857Z,21.15
2017-07-08T03:55:24.969Z,15.35
2017-07-08T03:57:51.039Z,14.00
2017-07-08T04:00:17.098Z,13.52
2017-07-08T04:02:43.171Z,21.55
2017-07-08T04:05:09.218Z,12.73
2017-07-08T04:07:35.291Z,20.50
2017-07-08T04:10:01.354Z,17.27
2017-07-08T04:12:27.423Z,19.35
2017-07-08T04:14:53.496Z,22.25
2017-07-08T04:17:19.561Z,20.12
2017-07-08T04:19:46.364Z,18.45
2017-07-08T04:22:12.420Z,21.80
2017-07-08T04:24:38.483Z,14.85
2017-07-08T04:27:04.539Z,20.62
2017-07-08T04:29:30.587Z,20.92
2017-07-08T04:31:56.650Z,22.65
2017-07-08T04:34:22.713Z,15.05
2017-07-08T04:36:48.779Z,21.23
2017-07-08T04:39:15.567Z,20.30
2017-07-08T04:41:41.643Z,22.05
2017-07-08T04:44:07.700Z,22.92
2017-07-08T04:46:33.765Z,14.27
2017-07-08T04:48:59.814Z,20.08
2017-07-08T04:51:25.855Z,21.45
2017-07-08T04:53:52.656Z,26.15
2017-07-08T04:56:18.727Z,21.30
2017-07-08T04:58:44.772Z,18.58
2017-07-08T05:01:10.840Z,18.25
2017-07-08T05:03:36.895Z,21.25
2017-07-08T05:06:02.947Z,22.55
2017-07-08T05:08:29.034Z,18.45
2017-07-08T05:10:55.179Z,19.33
2017-07-08T05:13:21.394Z,16.23
2017-07-08T05:15:47.471Z,15.32
2017-07-08T05:18:13.538Z,19.12
2017-07-08T05:20:39.595Z,13.25
2017-07-08T05:23:06.719Z,14.40
2017-07-08T05:25:32.787Z,13.98
2017-07-08T05:27:58.856Z,19.62
2017-07-08T05:30:24.934Z,10.93
2017-07-08T05:32:50.996Z,12.25
2017-07-08T05:35:17.071Z,17.10
2017-07-08T05:37:43.890Z,18.08
2017-07-08T05:40:09.980Z,12.45
2017-07-08T05:42:36.054Z,13.62
2017-07-08T05:45:02.130Z,16.08
2017-07-08T05:47:28.196Z,14.18
2017-07-08T05:49:54.259Z,18.20
2017-07-08T05:52:20.367Z,12.70
2017-07-08T05:54:47.180Z,15.68
2017-07-08T05:57:13.266Z,12.00
2017-07-08T05:59:39.333Z,12.40
2017-07-08T06:02:05.437Z,11.57
2017-07-08T06:04:31.524Z,14.75
2017-07-08T06:06:58.334Z,14.93
2017-07-08T06:09:24.446Z,13.77
2017-07-08T06:11:50.522Z,11.05
2017-07-08T06:14:17.319Z,12.20
2017-07-08T06:16:43.385Z,15.10
2017-07-08T06:19:09.466Z,15.95
2017-07-08T06:21:35.584Z,15.95
2017-07-08T06:24:01.638Z,12.52
2017-07-08T06:26:27.699Z,13.73
2017-07-08T06:28:53.770Z,12.10
2017-07-08T06:31:19.851Z,11.73
2017-07-08T06:33:45.914Z,11.63
2017-07-08T06:36:12.018Z,12.20
2017-07-08T06:38:38.095Z,12.63
2017-07-08T06:41:04.138Z,12.57
2017-07-08T06:43:30.205Z,13.05
2017-07-08T06:45:56.266Z,13.85
2017-07-08T06:48:22.367Z,15.82
2017-07-08T06:50:48.434Z,15.23
2017-07-08T06:53:14.491Z,11.25
2017-07-08T06:55:40.583Z,13.40
2017-07-08T06:58:06.667Z,12.70
2017-07-08T07:00:32.736Z,13.40
2017-07-08T07:02:58.810Z,13.25
2017-07-08T07:05:24.873Z,12.60
2017-07-08T07:07:50.929Z,12.18
2017-07-08T07:10:16.991Z,11.10
2017-07-08T07:12:43.042Z,8.70
2017-07-08T07:15:09.110Z,14.23
2017-07-08T07:17:50.175Z,11.37
2017-07-08T07:20:16.227Z,9.77
2017-07-08T07:22:42.329Z,10.05
2017-07-08T07:25:08.413Z,10.10
2017-07-08T07:27:34.493Z,9.03
2017-07-08T07:30:00.574Z,12.57
2017-07-08T07:32:26.638Z,9.93
2017-07-08T07:34:52.710Z,9.77
2017-07-08T07:37:18.782Z,14.03
2017-07-08T07:39:44.849Z,12.03
2017-07-08T07:42:10.906Z,12.00
2017-07-08T07:44:36.984Z,11.47
2017-07-08T07:47:03.054Z,14.40
2017-07-08T07:49:29.148Z,10.33
2017-07-08T07:51:55.206Z,9.43
2017-07-08T07:54:21.273Z,10.67
2017-07-08T07:56:47.362Z,9.85
2017-07-08T07:59:13.455Z,9.60
2017-07-08T08:01:39.531Z,14.47
2017-07-08T08:04:05.602Z,10.33
2017-07-08T08:06:31.696Z,10.93
2017-07-08T08:08:57.803Z,9.40
2017-07-08T08:11:23.878Z,10.73
2017-07-08T08:13:49.971Z,9.97
2017-07-08T08:16:31.010Z,9.07
2017-07-08T08:18:57.086Z,13.13
2017-07-08T08:21:23.193Z,9.10
2017-07-08T08:23:49.251Z,7.90
2017-07-08T08:26:15.310Z,8.67
2017-07-08T08:28:41.382Z,8.70
2017-07-08T08:31:07.471Z,12.47
2017-07-08T08:33:33.550Z,13.50
2017-07-08T08:35:59.604Z,9.70
2017-07-08T08:38:26.419Z,8.53
2017-07-08T08:40:52.488Z,10.27
2017-07-08T08:43:18.557Z,8.60
2017-07-08T08:45:44.621Z,7.17
2017-07-08T08:48:10.682Z,5.07
2017-07-08T08:50:36.764Z,5.50
2017-07-08T08:53:02.829Z,5.23
2017-07-08T08:55:28.920Z,5.03
2017-07-08T08:57:54.997Z,5.43
2017-07-08T09:00:21.053Z,4.87
2017-07-08T09:02:47.107Z,8.73
2017-07-08T09:05:13.173Z,6.27
2017-07-08T09:07:39.251Z,4.23
2017-07-08T09:10:05.306Z,6.90
2017-07-08T09:12:31.433Z,6.07
2017-07-08T09:14:57.521Z,4.43
2017-07-08T09:17:23.586Z,5.20
2017-07-08T09:19:49.647Z,4.10
2017-07-08T09:22:15.715Z,6.20
2017-07-08T09:24:41.776Z,4.67
2017-07-08T09:27:07.851Z,5.13
2017-07-08T09:29:33.931Z,6.37
2017-07-08T09:32:00.000Z,4.53
2017-07-08T09:34:26.092Z,4.77
2017-07-08T09:36:52.174Z,4.70
2017-07-08T09:39:18.247Z,6.50
2017-07-08T09:41:44.310Z,4.77
2017-07-08T09:44:10.399Z,19.30
2017-07-08T09:46:36.460Z,5.73
2017-07-08T09:49:02.529Z,5.03
2017-07-08T09:51:28.593Z,6.17
2017-07-08T09:53:54.702Z,5.20
2017-07-08T09:56:20.754Z,4.13
2017-07-08T09:58:46.834Z,4.27
2017-07-08T10:01:12.904Z,7.43
2017-07-08T10:03:38.974Z,4.63
2017-07-08T10:06:05.783Z,3.80
2017-07-08T10:08:31.856Z,4.67
2017-07-08T10:10:57.922Z,3.73
2017-07-08T10:13:23.982Z,4.00
2017-07-08T10:15:50.035Z,3.73
2017-07-08T10:18:16.101Z,5.00
2017-07-08T10:20:42.166Z,4.40
2017-07-08T10:23:08.225Z,8.27
2017-07-08T10:25:34.286Z,4.60
2017-07-08T10:28:00.377Z,4.37
2017-07-08T10:30:26.445Z,4.13
2017-07-08T10:32:52.875Z,3.90
2017-07-08T10:35:18.930Z,4.10
2017-07-08T10:37:44.975Z,5.73
2017-07-08T10:40:11.036Z,6.13
2017-07-08T10:42:37.107Z,4.03
2017-07-08T10:45:03.219Z,6.50
2017-07-08T10:47:29.263Z,3.57
2017-07-08T10:49:56.081Z,3.93
2017-07-08T10:52:22.182Z,4.07
2017-07-08T10:55:03.211Z,4.20
2017-07-08T10:57:29.282Z,4.13
2017-07-08T10:59:55.371Z,3.40
2017-07-08T11:02:21.443Z,3.97
2017-07-08T11:04:47.497Z,4.07
2017-07-08T11:07:13.548Z,3.53
2017-07-08T11:09:39.648Z,4.20
2017-07-08T11:12:05.705Z,3.93
2017-07-08T11:14:32.523Z,4.67
2017-07-08T11:17:13.549Z,7.40
2017-07-08T11:19:39.615Z,4.40
2017-07-08T11:22:20.637Z,4.20
2017-07-08T11:24:46.730Z,7.13
2017-07-08T11:27:12.794Z,4.43
2017-07-08T11:29:38.851Z,4.27
2017-07-08T11:32:04.918Z,4.83
2017-07-08T11:34:30.987Z,3.80
2017-07-08T11:36:57.039Z,4.17
2017-07-08T11:39:23.090Z,6.17
2017-07-08T11:41:49.159Z,5.03
2017-07-08T11:44:15.228Z,4.57
2017-07-08T11:46:41.280Z,3.67
2017-07-08T11:49:07.342Z,4.90
2017-07-08T11:51:33.413Z,4.20
2017-07-08T11:53:59.483Z,5.47
2017-07-08T11:56:25.566Z,4.07
2017-07-08T11:58:51.619Z,4.60
2017-07-08T12:01:17.691Z,4.50
2017-07-08T12:03:43.749Z,4.97
2017-07-08T12:06:09.818Z,4.30
2017-07-08T12:08:35.882Z,5.00
2017-07-08T12:11:01.934Z,4.37
2017-07-08T12:13:27.989Z,5.07
2017-07-08T12:15:54.048Z,7.53
2017-07-08T12:18:20.099Z,5.07
2017-07-08T12:20:46.155Z,4.60
2017-07-08T12:23:12.207Z,4.80
2017-07-08T12:25:38.300Z,5.33
2017-07-08T12:28:19.327Z,4.40
2017-07-08T12:30:45.389Z,8.17
2017-07-08T12:33:11.443Z,4.40
2017-07-08T12:35:37.495Z,6.17
2017-07-08T12:38:03.553Z,4.93
2017-07-08T12:40:29.615Z,4.00
2017-07-08T12:42:56.414Z,4.27
2017-07-08T12:45:22.482Z,4.87
2017-07-08T12:47:48.527Z,4.70
2017-07-08T12:50:14.600Z,5.00
2017-07-08T12:52:40.662Z,6.97
2017-07-08T12:55:06.744Z,4.53
2017-07-08T12:57:32.803Z,4.50
2017-07-08T12:59:58.855Z,9.23
2017-07-08T13:02:24.929Z,4.60
2017-07-08T13:04:50.996Z,4.20
2017-07-08T13:07:17.783Z,4.80
2017-07-08T13:09:43.835Z,6.63
2017-07-08T13:12:09.903Z,4.03
2017-07-08T13:14:35.974Z,4.33
2017-07-08T13:17:02.034Z,4.77
2017-07-08T13:19:28.082Z,4.20
2017-07-08T13:21:54.134Z,4.00
2017-07-08T13:24:20.187Z,4.57
2017-07-08T13:26:46.244Z,4.33
2017-07-08T13:29:12.312Z,4.87
2017-07-08T13:31:38.409Z,4.30
2017-07-08T13:34:04.475Z,4.33
2017-07-08T13:36:30.537Z,5.20
2017-07-08T13:38:56.592Z,4.67
2017-07-08T13:41:22.659Z,4.23
2017-07-08T13:43:48.736Z,4.27
2017-07-08T13:46:14.798Z,3.57
2017-07-08T13:48:40.858Z,4.20
2017-07-08T13:51:06.923Z,3.83
2017-07-08T13:53:32.991Z,5.10
2017-07-08T13:55:59.064Z,3.50
2017-07-08T13:58:25.878Z,4.03
2017-07-08T14:00:51.927Z,3.73
2017-07-08T14:03:18.018Z,4.60
2017-07-08T14:05:44.080Z,4.13
2017-07-08T14:08:10.139Z,7.03
2017-07-08T14:10:36.206Z,4.03
2017-07-08T14:13:02.282Z,3.60
2017-07-08T14:15:28.349Z,4.37
2017-07-08T14:17:54.412Z,4.10
2017-07-08T14:20:20.503Z,5.00
2017-07-08T14:22:46.585Z,4.40
2017-07-08T14:25:12.655Z,4.40
2017-07-08T14:27:38.743Z,3.97
2017-07-08T14:30:04.817Z,4.33
2017-07-08T14:32:30.878Z,4.50
2017-07-08T14:34:56.954Z,4.53
2017-07-08T14:37:23.035Z,4.97
2017-07-08T14:39:49.125Z,3.77
2017-07-08T14:42:15.174Z,4.60
2017-07-08T14:44:41.242Z,4.00
2017-07-08T14:47:07.308Z,4.03
2017-07-08T14:49:33.372Z,4.60
2017-07-08T14:51:59.436Z,4.33
2017-07-08T14:54:25.504Z,5.00
2017-07-08T14:56:52.675Z,6.33
2017-07-08T14:59:18.747Z,4.80
2017-07-08T15:01:44.807Z,4.50
2017-07-08T15:04:11.620Z,14.57
2017-07-08T15:06:37.679Z,4.53
2017-07-08T15:09:03.759Z,3.67
2017-07-08T15:11:29.827Z,3.53
2017-07-08T15:13:55.890Z,3.30
2017-07-08T15:16:21.943Z,4.10
2017-07-08T15:18:47.987Z,4.70
2017-07-08T15:21:14.054Z,3.60
2017-07-08T15:23:40.116Z,4.30
2017-07-08T15:26:06.176Z,3.93
2017-07-08T15:28:32.230Z,4.30
2017-07-08T15:30:58.295Z,3.77
2017-07-08T15:33:24.351Z,3.63
2017-07-08T15:35:50.411Z,4.70
2017-07-08T15:38:16.468Z,3.90
2017-07-08T15:40:42.550Z,3.97
2017-07-08T15:43:08.611Z,4.60
2017-07-08T15:45:34.676Z,4.43
2017-07-08T15:48:00.743Z,4.27
2017-07-08T15:50:26.806Z,3.77
2017-07-08T15:52:52.867Z,4.17
2017-07-08T15:55:19.667Z,4.10
2017-07-08T15:58:00.730Z,6.80
2017-07-08T16:00:26.779Z,3.67
2017-07-08T16:02:52.835Z,4.20
2017-07-08T16:05:18.897Z,3.93
2017-07-08T16:07:44.965Z,4.27
2017-07-08T16:10:11.016Z,4.17
2017-07-08T16:12:37.111Z,7.23
2017-07-08T16:15:03.171Z,8.67
2017-07-08T16:17:29.262Z,3.70
2017-07-08T16:19:55.347Z,6.07
2017-07-08T16:22:21.406Z,3.87
2017-07-08T16:24:47.478Z,4.13
2017-07-08T16:27:13.539Z,4.83
2017-07-08T16:29:39.599Z,4.73
2017-07-08T16:32:05.671Z,3.93
2017-07-08T16:34:31.723Z,4.13
2017-07-08T16:36:57.795Z,3.90
2017-07-08T16:39:23.876Z,3.77
2017-07-08T16:41:49.979Z,3.93
2017-07-08T16:44:31.055Z,5.47
2017-07-08T16:46:57.133Z,4.30
2017-07-08T16:49:23.198Z,4.07
2017-07-08T16:51:50.001Z,4.53
2017-07-08T16:54:16.092Z,4.80
2017-07-08T16:56:42.182Z,5.80
2017-07-08T16:59:08.241Z,6.33
2017-07-08T17:01:34.307Z,4.93
2017-07-08T17:04:00.365Z,4.30
2017-07-08T17:06:26.450Z,4.30
2017-07-08T17:08:52.510Z,5.10
2017-07-08T17:11:18.605Z,3.87
2017-07-08T17:13:44.663Z,5.30
2017-07-08T17:16:10.726Z,4.33
2017-07-08T17:18:36.830Z,3.93
2017-07-08T17:21:02.913Z,4.80
2017-07-08T17:23:28.963Z,4.33
2017-07-08T17:26:09.986Z,4.70
2017-07-08T17:28:36.127Z,4.63
2017-07-08T17:31:02.191Z,4.47
2017-07-08T17:33:28.254Z,5.30
2017-07-08T17:35:54.332Z,6.63
2017-07-08T17:38:23.187Z,4.10
2017-07-08T17:40:49.250Z,4.27
2017-07-08T17:43:15.307Z,5.10
2017-07-08T17:45:42.115Z,4.50
2017-07-08T17:48:08.169Z,5.07
2017-07-08T17:50:34.235Z,5.07
2017-07-08T17:53:00.292Z,5.00
2017-07-08T17:55:41.304Z,5.00
2017-07-08T17:58:07.359Z,4.73
2017-07-08T18:00:33.421Z,12.57
2017-07-08T18:02:59.473Z,5.30
2017-07-08T18:05:25.533Z,5.90
2017-07-08T18:07:51.585Z,6.23
2017-07-08T18:10:17.644Z,5.90
2017-07-08T18:12:43.713Z,4.70
2017-07-08T18:15:09.881Z,4.60
2017-07-08T18:17:35.942Z,5.10
2017-07-08T18:20:02.062Z,6.57
2017-07-08T18:22:28.126Z,5.07
2017-07-08T18:24:54.200Z,5.00
2017-07-08T18:27:20.264Z,5.80
2017-07-08T18:29:46.327Z,7.87
2017-07-08T18:32:12.403Z,4.77
2017-07-08T18:34:38.471Z,5.43
2017-07-08T18:37:04.550Z,5.23
2017-07-08T18:39:30.606Z,5.20
2017-07-08T18:41:56.663Z,8.80
2017-07-08T18:44:22.734Z,6.90
2017-07-08T18:46:49.547Z,5.10
2017-07-08T18:49:15.598Z,5.73
2017-07-08T18:51:41.651Z,4.50
2017-07-08T18:54:07.752Z,5.37
2017-07-08T18:56:33.823Z,4.80
2017-07-08T18:58:59.898Z,5.10
2017-07-08T19:01:25.985Z,6.30
2017-07-08T19:03:52.051Z,6.10
2017-07-08T19:06:18.120Z,5.20
2017-07-08T19:08:44.213Z,5.20
2017-07-08T19:11:10.286Z,5.17
2017-07-08T19:13:36.336Z,5.33
2017-07-08T19:16:02.393Z,4.83
2017-07-08T19:18:28.462Z,4.73
2017-07-08T19:20:54.530Z,5.07
2017-07-08T19:23:20.594Z,5.30
2017-07-08T19:25:46.702Z,5.10
2017-07-08T19:28:12.800Z,5.20
2017-07-08T19:30:38.855Z,4.83
2017-07-08T19:33:04.899Z,4.50
2017-07-08T19:35:30.977Z,4.80
2017-07-08T19:37:57.031Z,4.47
2017-07-08T19:40:23.837Z,4.70
2017-07-08T19:42:49.932Z,5.40
2017-07-08T19:45:15.991Z,4.77
2017-07-08T19:47:42.043Z,5.70
2017-07-08T19:50:08.102Z,5.23
2017-07-08T19:52:34.150Z,4.93
2017-07-08T19:55:00.198Z,5.00
2017-07-08T19:57:26.265Z,5.23
2017-07-08T19:59:53.067Z,5.00
2017-07-08T20:02:19.154Z,5.17
2017-07-08T20:04:45.216Z,4.93
2017-07-08T20:07:11.270Z,5.83
2017-07-08T20:09:37.364Z,4.90
2017-07-08T20:12:03.434Z,5.73
2017-07-08T20:14:29.507Z,5.30
2017-07-08T20:16:55.572Z,5.60
2017-07-08T20:19:21.632Z,5.23
2017-07-08T20:21:47.768Z,4.70
2017-07-08T20:24:13.846Z,6.67
2017-07-08T20:26:39.905Z,5.57
2017-07-08T20:29:05.985Z,5.93
2017-07-08T20:31:32.046Z,6.03
2017-07-08T20:33:58.097Z,5.93
2017-07-08T20:36:24.162Z,5.40
2017-07-08T20:38:50.239Z,6.07
2017-07-08T20:41:16.320Z,5.37
2017-07-08T20:43:42.398Z,6.50
2017-07-08T20:46:08.465Z,6.03
2017-07-08T20:48:34.594Z,6.60
2017-07-08T20:51:15.612Z,5.93
2017-07-08T20:53:41.702Z,6.27
2017-07-08T20:56:07.775Z,7.90
2017-07-08T20:58:48.826Z,6.90
2017-07-08T21:01:14.882Z,6.83
2017-07-08T21:03:40.956Z,5.53
2017-07-08T21:06:07.030Z,6.50
2017-07-08T21:08:33.174Z,7.03
2017-07-08T21:10:59.240Z,5.80
2017-07-08T21:13:25.357Z,6.47
2017-07-08T21:15:51.418Z,7.77
2017-07-08T21:18:17.488Z,6.57
2017-07-08T21:20:43.550Z,6.90
2017-07-08T21:23:09.607Z,7.43
2017-07-08T21:25:35.681Z,5.80
2017-07-08T21:28:01.768Z,6.40
2017-07-08T21:30:59.013Z,6.70
2017-07-08T21:33:25.080Z,7.17
2017-07-08T21:35:51.915Z,7.30
2017-07-08T21:38:17.993Z,6.53
2017-07-08T21:40:44.055Z,8.43
2017-07-08T21:43:10.118Z,8.70
2017-07-08T21:45:36.174Z,7.70
2017-07-08T21:48:02.241Z,7.50
2017-07-08T21:50:28.365Z,8.40
2017-07-08T21:52:54.373Z,7.87
2017-07-08T21:55:21.172Z,7.40
2017-07-08T21:57:47.257Z,6.90
2017-07-08T22:00:13.339Z,7.30
2017-07-08T22:02:39.392Z,7.47
2017-07-08T22:05:20.426Z,7.00
2017-07-08T22:07:46.486Z,7.57
2017-07-08T22:10:13.296Z,8.27
2017-07-08T22:12:39.353Z,7.30
2017-07-08T22:15:05.499Z,10.83
2017-07-08T22:17:32.299Z,8.53
2017-07-08T22:19:58.369Z,8.37
2017-07-08T22:22:24.426Z,6.40
2017-07-08T22:24:51.140Z,7.43
2017-07-08T22:27:17.232Z,8.50
2017-07-08T22:29:43.353Z,6.40
2017-07-08T22:32:09.444Z,8.13
2017-07-08T22:34:35.536Z,7.33
2017-07-08T22:37:01.628Z,6.17
2017-07-08T22:39:27.737Z,7.57
2017-07-08T22:41:53.831Z,7.50
2017-07-08T22:44:19.937Z,9.23
2017-07-08T22:46:46.779Z,7.53
2017-07-08T22:49:12.886Z,7.10
2017-07-08T22:51:38.984Z,9.10
2017-07-08T22:54:05.091Z,8.20
2017-07-08T22:56:31.208Z,7.00
2017-07-08T22:58:57.305Z,8.67
2017-07-08T23:01:23.393Z,8.77
2017-07-08T23:03:49.508Z,9.77
2017-07-08T23:06:15.668Z,10.40
2017-07-08T23:08:41.757Z,5.93
2017-07-08T23:11:07.887Z,7.57
2017-07-08T23:13:33.984Z,8.03
2017-07-08T23:16:00.072Z,7.53
2017-07-08T23:18:26.161Z,7.87
2017-07-08T23:20:52.260Z,7.80
2017-07-08T23:23:18.367Z,7.50
2017-07-08T23:25:44.514Z,8.43
2017-07-08T23:28:10.602Z,8.60
2017-07-08T23:30:36.709Z,7.80
2017-07-08T23:33:02.813Z,8.35
2017-07-08T23:35:28.925Z,9.00
2017-07-08T23:37:55.762Z,8.43
2017-07-08T23:40:22.601Z,8.00
2017-07-08T23:42:48.712Z,9.47
2017-07-08T23:45:14.825Z,8.93
2017-07-08T23:47:47.100Z,7.63
2017-07-08T23:50:13.217Z,9.23
2017-07-08T23:52:39.336Z,8.43
2017-07-08T23:55:05.433Z,9.03
2017-07-08T23:57:31.540Z,10.90
2017-07-08T23:59:57.644Z,9.68
